This is the latest recevied weather packets stored in our database for station/object F4WDE-10. If no packets are shown the sender has not sent any weather packets the latest 10 day(s).
| Time | Temp. | Humidity | Pressure | Rain* | Wind** | Luminosity | Snow |
|---|---|---|---|---|---|---|---|
| 1777604612 | 15° C | 61% | 967 hPa | - | - | - | - |
| 1777603711 | 15° C | 60% | 967 hPa | - | - | - | - |
| 1777602810 | 15.56° C | 58% | 967 hPa | - | - | - | - |
| 1777601909 | 15° C | 61% | 967 hPa | - | - | - | - |
| 1777601007 | 15.56° C | 59% | 967 hPa | - | - | - | - |
| 1777600107 | 15.56° C | 61% | 967 hPa | - | - | - | - |
| 1777599205 | 15.56° C | 63% | 967 hPa | - | - | - | - |
| 1777598304 | 15.56° C | 63% | 967 hPa | - | - | - | - |
| 1777597403 | 16.11° C | 63% | 967 hPa | - | - | - | - |
| 1777596502 | 16.11° C | 60% | 967 hPa | - | - | - | - |
| 1777595601 | 16.11° C | 59% | 967 hPa | - | - | - | - |
| 1777594700 | 16.11° C | 58% | 967 hPa | - | - | - | - |
| 1777593799 | 16.11° C | 58% | 967 hPa | - | - | - | - |
| 1777592898 | 16.11° C | 56% | 967 hPa | - | - | - | - |
| 1777591996 | 16.67° C | 54% | 966 hPa | - | - | - | - |
| 1777591095 | 16.67° C | 52% | 966 hPa | - | - | - | - |
| 1777590194 | 16.67° C | 53% | 966 hPa | - | - | - | - |
| 1777589293 | 17.22° C | 53% | 966 hPa | - | - | - | - |
| 1777588392 | 16.67° C | 54% | 966 hPa | - | - | - | - |
| 1777587491 | 16.67° C | 55% | 966 hPa | - | - | - | - |
| 1777586590 | 16.67° C | 55% | 966 hPa | - | - | - | - |
| 1777585689 | 17.22° C | 54% | 966 hPa | - | - | - | - |
| 1777584788 | 17.22° C | 53% | 966 hPa | - | - | - | - |
| 1777583886 | 17.22° C | 53% | 966 hPa | - | - | - | - |
| 1777582985 | 17.22° C | 53% | 966 hPa | - | - | - | - |
* Rain since midnight (hover to see other rain measurements)
** Current wind speed in m/s (hover to see current wind gust speed)